<?xml version='1.0' encoding='UTF-8'?><gpx version="1.1" creator="JPX - https://github.com/jenetics/jpx" xmlns="http://www.topografix.com/GPX/1/1"><trk><trkseg><trkpt lat="46.0669913" lon="13.1882177"><ele>111.83333333333334</ele><time>2026-04-15T12:08:10.468Z</time></trkpt><trkpt lat="46.0670461" lon="13.18815"><ele>111.66666666666667</ele><time>2026-04-15T12:08:18.404Z</time></trkpt><trkpt lat="46.0670367" lon="13.1879983"><ele>111.5</ele><time>2026-04-15T12:08:22.39Z</time></trkpt><trkpt lat="46.06705" lon="13.1879083"><ele>111.33333333333334</ele><time>2026-04-15T12:08:32.391Z</time></trkpt><trkpt lat="46.0671383" lon="13.187835"><ele>111.16666666666667</ele><time>2026-04-15T12:08:50.39Z</time></trkpt><trkpt lat="46.06722" lon="13.18781"><ele>111.0</ele><time>2026-04-15T12:08:52.391Z</time></trkpt><trkpt lat="46.0673117" lon="13.187785"><ele>111.0</ele><time>2026-04-15T12:08:54.392Z</time></trkpt><trkpt lat="46.0674083" lon="13.1877533"><ele>111.0</ele><time>2026-04-15T12:08:56.392Z</time></trkpt><trkpt lat="46.06752" lon="13.1877133"><ele>111.0</ele><time>2026-04-15T12:08:58.391Z</time></trkpt><trkpt lat="46.0675883" lon="13.18769"><ele>111.0</ele><time>2026-04-15T12:08:59.392Z</time></trkpt><trkpt lat="46.0676667" lon="13.1876583"><ele>111.0</ele><time>2026-04-15T12:09:00.391Z</time></trkpt><trkpt lat="46.0677367" lon="13.1876217"><ele>111.0</ele><time>2026-04-15T12:09:01.39Z</time></trkpt><trkpt lat="46.0678133" lon="13.1875767"><ele>111.0</ele><time>2026-04-15T12:09:02.39Z</time></trkpt><trkpt lat="46.0678917" lon="13.1875183"><ele>111.0</ele><time>2026-04-15T12:09:03.39Z</time></trkpt><trkpt lat="46.0679633" lon="13.187455"><ele>111.0</ele><time>2026-04-15T12:09:04.39Z</time></trkpt><trkpt lat="46.068035" lon="13.1873983"><ele>111.0</ele><time>2026-04-15T12:09:05.391Z</time></trkpt><trkpt lat="46.06811" lon="13.1873467"><ele>111.0</ele><time>2026-04-15T12:09:06.391Z</time></trkpt><trkpt lat="46.0681883" lon="13.1873083"><ele>111.0</ele><time>2026-04-15T12:09:07.391Z</time></trkpt><trkpt lat="46.0682633" lon="13.18728"><ele>111.0</ele><time>2026-04-15T12:09:08.39Z</time></trkpt><trkpt lat="46.06834" lon="13.18726"><ele>111.0</ele><time>2026-04-15T12:09:09.391Z</time></trkpt><trkpt lat="46.0684217" lon="13.1872317"><ele>111.0</ele><time>2026-04-15T12:09:10.391Z</time></trkpt><trkpt lat="46.0685" lon="13.187205"><ele>111.0</ele><time>2026-04-15T12:09:11.391Z</time></trkpt><trkpt lat="46.0685767" lon="13.18718"><ele>111.0</ele><time>2026-04-15T12:09:12.391Z</time></trkpt><trkpt lat="46.0686617" lon="13.1871583"><ele>111.0</ele><time>2026-04-15T12:09:13.391Z</time></trkpt><trkpt lat="46.0687483" lon="13.1871367"><ele>111.0</ele><time>2026-04-15T12:09:14.39Z</time></trkpt><trkpt lat="46.06885" lon="13.1871017"><ele>111.0</ele><time>2026-04-15T12:09:15.391Z</time></trkpt><trkpt lat="46.06893" lon="13.1870633"><ele>111.0</ele><time>2026-04-15T12:09:16.391Z</time></trkpt><trkpt lat="46.0690167" lon="13.187045"><ele>111.0</ele><time>2026-04-15T12:09:17.391Z</time></trkpt><trkpt lat="46.069105" lon="13.1870267"><ele>111.0</ele><time>2026-04-15T12:09:18.393Z</time></trkpt><trkpt lat="46.0691867" lon="13.1870233"><ele>111.0</ele><time>2026-04-15T12:09:19.391Z</time></trkpt><trkpt lat="46.0692683" lon="13.18703"><ele>111.16666666666667</ele><time>2026-04-15T12:09:20.391Z</time></trkpt><trkpt lat="46.0693467" lon="13.1870483"><ele>111.33333333333334</ele><time>2026-04-15T12:09:21.391Z</time></trkpt><trkpt lat="46.0694117" lon="13.1870817"><ele>111.5</ele><time>2026-04-15T12:09:22.39Z</time></trkpt><trkpt lat="46.0695017" lon="13.187185"><ele>111.66666666666667</ele><time>2026-04-15T12:09:24.391Z</time></trkpt><trkpt lat="46.06953" lon="13.1872667"><ele>111.83333333333334</ele><time>2026-04-15T12:09:25.39Z</time></trkpt><trkpt lat="46.0695467" lon="13.1873667"><ele>112.0</ele><time>2026-04-15T12:09:26.39Z</time></trkpt><trkpt lat="46.06956" lon="13.18747"><ele>112.16666666666667</ele><time>2026-04-15T12:09:27.392Z</time></trkpt><trkpt lat="46.0695683" lon="13.1875817"><ele>112.33333333333334</ele><time>2026-04-15T12:09:28.391Z</time></trkpt><trkpt lat="46.069575" lon="13.1877033"><ele>112.5</ele><time>2026-04-15T12:09:29.392Z</time></trkpt><trkpt lat="46.0695817" lon="13.187825"><ele>112.66666666666666</ele><time>2026-04-15T12:09:30.392Z</time></trkpt><trkpt lat="46.069585" lon="13.1879533"><ele>112.83333333333333</ele><time>2026-04-15T12:09:31.39Z</time></trkpt><trkpt lat="46.0695867" lon="13.1880833"><ele>113.0</ele><time>2026-04-15T12:09:32.394Z</time></trkpt><trkpt lat="46.069585" lon="13.18822"><ele>113.0</ele><time>2026-04-15T12:09:33.391Z</time></trkpt><trkpt lat="46.0695617" lon="13.18835"><ele>113.00000000000001</ele><time>2026-04-15T12:09:34.393Z</time></trkpt><trkpt lat="46.0695617" lon="13.1884817"><ele>113.00000000000001</ele><time>2026-04-15T12:09:35.391Z</time></trkpt><trkpt lat="46.0695633" lon="13.18862"><ele>113.0</ele><time>2026-04-15T12:09:36.391Z</time></trkpt><trkpt lat="46.0695683" lon="13.188755"><ele>113.0</ele><time>2026-04-15T12:09:37.39Z</time></trkpt><trkpt lat="46.0695783" lon="13.1888967"><ele>113.2</ele><time>2026-04-15T12:09:38.391Z</time></trkpt><trkpt lat="46.0695983" lon="13.189025"><ele>113.4</ele><time>2026-04-15T12:09:39.39Z</time></trkpt><trkpt lat="46.0696183" lon="13.1891517"><ele>113.60000000000001</ele><time>2026-04-15T12:09:40.39Z</time></trkpt><trkpt lat="46.069645" lon="13.1892783"><ele>113.80000000000001</ele><time>2026-04-15T12:09:41.389Z</time></trkpt><trkpt lat="46.0696767" lon="13.189405"><ele>114.0</ele><time>2026-04-15T12:09:42.391Z</time></trkpt><trkpt lat="46.0697067" lon="13.189525"><ele>114.0</ele><time>2026-04-15T12:09:43.389Z</time></trkpt><trkpt lat="46.069745" lon="13.1896433"><ele>114.0</ele><time>2026-04-15T12:09:44.39Z</time></trkpt><trkpt lat="46.0697867" lon="13.1897317"><ele>114.0</ele><time>2026-04-15T12:09:45.389Z</time></trkpt><trkpt lat="46.0698417" lon="13.1898033"><ele>114.0</ele><time>2026-04-15T12:09:46.392Z</time></trkpt><trkpt lat="46.06991" lon="13.1898317"><ele>114.0</ele><time>2026-04-15T12:09:47.389Z</time></trkpt><trkpt lat="46.0699983" lon="13.189855"><ele>114.0</ele><time>2026-04-15T12:09:48.39Z</time></trkpt><trkpt lat="46.0700717" lon="13.1898833"><ele>114.16666666666667</ele><time>2026-04-15T12:09:49.39Z</time></trkpt><trkpt lat="46.0701517" lon="13.189915"><ele>114.33333333333334</ele><time>2026-04-15T12:09:50.391Z</time></trkpt><trkpt lat="46.070235" lon="13.18995"><ele>114.5</ele><time>2026-04-15T12:09:51.389Z</time></trkpt><trkpt lat="46.0703233" lon="13.1899767"><ele>114.66666666666667</ele><time>2026-04-15T12:09:52.391Z</time></trkpt><trkpt lat="46.070405" lon="13.1900167"><ele>114.83333333333334</ele><time>2026-04-15T12:09:53.389Z</time></trkpt><trkpt lat="46.0704917" lon="13.190045"><ele>115.0</ele><time>2026-04-15T12:09:54.391Z</time></trkpt><trkpt lat="46.070585" lon="13.1900733"><ele>115.0</ele><time>2026-04-15T12:09:55.39Z</time></trkpt><trkpt lat="46.0706767" lon="13.1900933"><ele>115.0</ele><time>2026-04-15T12:09:56.391Z</time></trkpt><trkpt lat="46.07077" lon="13.1901133"><ele>115.0</ele><time>2026-04-15T12:09:57.389Z</time></trkpt><trkpt lat="46.0708583" lon="13.1901417"><ele>115.0</ele><time>2026-04-15T12:09:58.391Z</time></trkpt><trkpt lat="46.07094" lon="13.1901733"><ele>115.0</ele><time>2026-04-15T12:09:59.39Z</time></trkpt><trkpt lat="46.0710267" lon="13.1902"><ele>114.4</ele><time>2026-04-15T12:10:00.391Z</time></trkpt><trkpt lat="46.07112" lon="13.1902367"><ele>113.8</ele><time>2026-04-15T12:10:01.389Z</time></trkpt><trkpt lat="46.07121" lon="13.19027"><ele>113.19999999999999</ele><time>2026-04-15T12:10:02.391Z</time></trkpt><trkpt lat="46.0713" lon="13.1903067"><ele>112.6</ele><time>2026-04-15T12:10:03.389Z</time></trkpt><trkpt lat="46.0713933" lon="13.1903417"><ele>112.0</ele><time>2026-04-15T12:10:04.39Z</time></trkpt><trkpt lat="46.071485" lon="13.1903667"><ele>112.0</ele><time>2026-04-15T12:10:05.39Z</time></trkpt><trkpt lat="46.0715767" lon="13.1903967"><ele>111.99999999999999</ele><time>2026-04-15T12:10:06.389Z</time></trkpt><trkpt lat="46.0716683" lon="13.1904283"><ele>111.99999999999999</ele><time>2026-04-15T12:10:07.389Z</time></trkpt><trkpt lat="46.0717633" lon="13.1904583"><ele>112.0</ele><time>2026-04-15T12:10:08.391Z</time></trkpt><trkpt lat="46.071855" lon="13.1904817"><ele>112.0</ele><time>2026-04-15T12:10:09.39Z</time></trkpt><trkpt lat="46.071945" lon="13.1904917"><ele>112.16666666666667</ele><time>2026-04-15T12:10:10.392Z</time></trkpt><trkpt lat="46.0720433" lon="13.1905067"><ele>112.33333333333334</ele><time>2026-04-15T12:10:11.392Z</time></trkpt><trkpt lat="46.0721333" lon="13.1905183"><ele>112.5</ele><time>2026-04-15T12:10:12.391Z</time></trkpt><trkpt lat="46.0722217" lon="13.1905317"><ele>112.66666666666666</ele><time>2026-04-15T12:10:13.39Z</time></trkpt><trkpt lat="46.0723033" lon="13.1905383"><ele>112.83333333333333</ele><time>2026-04-15T12:10:14.389Z</time></trkpt><trkpt lat="46.0723833" lon="13.1905533"><ele>113.0</ele><time>2026-04-15T12:10:15.39Z</time></trkpt><trkpt lat="46.0724667" lon="13.1905783"><ele>113.0</ele><time>2026-04-15T12:10:16.391Z</time></trkpt><trkpt lat="46.07255" lon="13.1906183"><ele>113.00000000000001</ele><time>2026-04-15T12:10:17.389Z</time></trkpt><trkpt lat="46.07263" lon="13.190685"><ele>113.00000000000001</ele><time>2026-04-15T12:10:18.39Z</time></trkpt><trkpt lat="46.0727083" lon="13.19076"><ele>113.0</ele><time>2026-04-15T12:10:19.391Z</time></trkpt><trkpt lat="46.0727883" lon="13.1908433"><ele>113.0</ele><time>2026-04-15T12:10:20.392Z</time></trkpt><trkpt lat="46.072875" lon="13.190935"><ele>113.25</ele><time>2026-04-15T12:10:21.39Z</time></trkpt><trkpt lat="46.0729683" lon="13.191025"><ele>113.5</ele><time>2026-04-15T12:10:22.39Z</time></trkpt><trkpt lat="46.0730667" lon="13.1911167"><ele>113.75</ele><time>2026-04-15T12:10:23.39Z</time></trkpt><trkpt lat="46.0731617" lon="13.1912133"><ele>114.0</ele><time>2026-04-15T12:10:24.389Z</time></trkpt><trkpt lat="46.073255" lon="13.1913117"><ele>114.0</ele><time>2026-04-15T12:10:25.391Z</time></trkpt><trkpt lat="46.0733483" lon="13.1914067"><ele>114.0</ele><time>2026-04-15T12:10:26.389Z</time></trkpt><trkpt lat="46.07344" lon="13.1915017"><ele>114.0</ele><time>2026-04-15T12:10:27.389Z</time></trkpt><trkpt lat="46.07353" lon="13.1916"><ele>114.0</ele><time>2026-04-15T12:10:28.39Z</time></trkpt><trkpt lat="46.0736233" lon="13.1916967"><ele>114.2</ele><time>2026-04-15T12:10:29.39Z</time></trkpt><trkpt lat="46.073715" lon="13.19179"><ele>114.4</ele><time>2026-04-15T12:10:30.39Z</time></trkpt><trkpt lat="46.073805" lon="13.191885"><ele>114.6</ele><time>2026-04-15T12:10:31.39Z</time></trkpt><trkpt lat="46.0738917" lon="13.1919783"><ele>114.8</ele><time>2026-04-15T12:10:32.39Z</time></trkpt><trkpt lat="46.07397" lon="13.192075"><ele>115.0</ele><time>2026-04-15T12:10:33.389Z</time></trkpt><trkpt lat="46.0740583" lon="13.1921633"><ele>115.0</ele><time>2026-04-15T12:10:34.394Z</time></trkpt><trkpt lat="46.0741383" lon="13.1922533"><ele>115.0</ele><time>2026-04-15T12:10:35.389Z</time></trkpt><trkpt lat="46.0742183" lon="13.192335"><ele>115.0</ele><time>2026-04-15T12:10:36.39Z</time></trkpt><trkpt lat="46.0742983" lon="13.1924183"><ele>115.0</ele><time>2026-04-15T12:10:37.39Z</time></trkpt><trkpt lat="46.0743783" lon="13.1925"><ele>115.0</ele><time>2026-04-15T12:10:38.39Z</time></trkpt><trkpt lat="46.074455" lon="13.1925817"><ele>115.00000000000001</ele><time>2026-04-15T12:10:39.39Z</time></trkpt><trkpt lat="46.0745317" lon="13.1926567"><ele>115.0</ele><time>2026-04-15T12:10:40.389Z</time></trkpt><trkpt lat="46.0746033" lon="13.1927383"><ele>115.0</ele><time>2026-04-15T12:10:41.39Z</time></trkpt><trkpt lat="46.074675" lon="13.1928"><ele>115.0</ele><time>2026-04-15T12:10:42.39Z</time></trkpt><trkpt lat="46.07473" lon="13.1928467"><ele>115.00000000000001</ele><time>2026-04-15T12:10:43.39Z</time></trkpt><trkpt lat="46.0747833" lon="13.1929067"><ele>115.0</ele><time>2026-04-15T12:10:45.391Z</time></trkpt><trkpt lat="46.074815" lon="13.1930433"><ele>115.0</ele><time>2026-04-15T12:10:57.39Z</time></trkpt><trkpt lat="46.074805" lon="13.19314"><ele>115.0</ele><time>2026-04-15T12:10:58.39Z</time></trkpt><trkpt lat="46.074795" lon="13.1932567"><ele>115.0</ele><time>2026-04-15T12:10:59.39Z</time></trkpt><trkpt lat="46.0747883" lon="13.1933933"><ele>115.0</ele><time>2026-04-15T12:11:00.392Z</time></trkpt><trkpt lat="46.0747717" lon="13.1935433"><ele>115.0</ele><time>2026-04-15T12:11:01.389Z</time></trkpt><trkpt lat="46.0747567" lon="13.1936933"><ele>114.75</ele><time>2026-04-15T12:11:02.39Z</time></trkpt><trkpt lat="46.0747417" lon="13.1938517"><ele>114.5</ele><time>2026-04-15T12:11:03.389Z</time></trkpt><trkpt lat="46.0747267" lon="13.19403"><ele>114.25</ele><time>2026-04-15T12:11:04.39Z</time></trkpt><trkpt lat="46.0747133" lon="13.1942133"><ele>114.0</ele><time>2026-04-15T12:11:05.391Z</time></trkpt><trkpt lat="46.0747" lon="13.1944017"><ele>113.5</ele><time>2026-04-15T12:11:06.391Z</time></trkpt><trkpt lat="46.0746867" lon="13.1945967"><ele>113.0</ele><time>2026-04-15T12:11:07.392Z</time></trkpt><trkpt lat="46.0746733" lon="13.1947967"><ele>112.5</ele><time>2026-04-15T12:11:08.39Z</time></trkpt><trkpt lat="46.0746617" lon="13.195"><ele>112.0</ele><time>2026-04-15T12:11:09.39Z</time></trkpt><trkpt lat="46.0746467" lon="13.195205"><ele>111.75</ele><time>2026-04-15T12:11:10.39Z</time></trkpt><trkpt lat="46.0746317" lon="13.1954167"><ele>111.5</ele><time>2026-04-15T12:11:11.392Z</time></trkpt><trkpt lat="46.07462" lon="13.1956267"><ele>111.25</ele><time>2026-04-15T12:11:12.391Z</time></trkpt><trkpt lat="46.0746033" lon="13.195845"><ele>111.0</ele><time>2026-04-15T12:11:13.391Z</time></trkpt><trkpt lat="46.0745833" lon="13.1960617"><ele>110.66666666666666</ele><time>2026-04-15T12:11:14.39Z</time></trkpt><trkpt lat="46.0745633" lon="13.1962817"><ele>110.33333333333333</ele><time>2026-04-15T12:11:15.391Z</time></trkpt><trkpt lat="46.0745383" lon="13.1965067"><ele>110.0</ele><time>2026-04-15T12:11:16.389Z</time></trkpt><trkpt lat="46.074515" lon="13.1967333"><ele>110.0</ele><time>2026-04-15T12:11:17.39Z</time></trkpt><trkpt lat="46.07449" lon="13.1969667"><ele>110.0</ele><time>2026-04-15T12:11:18.39Z</time></trkpt><trkpt lat="46.0744717" lon="13.1972017"><ele>110.0</ele><time>2026-04-15T12:11:19.393Z</time></trkpt><trkpt lat="46.074455" lon="13.19744"><ele>110.0</ele><time>2026-04-15T12:11:20.392Z</time></trkpt><trkpt lat="46.0744383" lon="13.1976717"><ele>110.0</ele><time>2026-04-15T12:11:21.394Z</time></trkpt><trkpt lat="46.0744183" lon="13.1978933"><ele>110.0</ele><time>2026-04-15T12:11:22.391Z</time></trkpt><trkpt lat="46.0743983" lon="13.1981033"><ele>110.0</ele><time>2026-04-15T12:11:23.39Z</time></trkpt><trkpt lat="46.07438" lon="13.1982883"><ele>110.0</ele><time>2026-04-15T12:11:24.391Z</time></trkpt><trkpt lat="46.0743533" lon="13.198455"><ele>110.0</ele><time>2026-04-15T12:11:25.391Z</time></trkpt><trkpt lat="46.0743183" lon="13.1985967"><ele>110.0</ele><time>2026-04-15T12:11:26.389Z</time></trkpt><trkpt lat="46.0742683" lon="13.1987033"><ele>110.0</ele><time>2026-04-15T12:11:27.39Z</time></trkpt><trkpt lat="46.074205" lon="13.1987767"><ele>109.99999999999999</ele><time>2026-04-15T12:11:28.39Z</time></trkpt><trkpt lat="46.0741367" lon="13.1988117"><ele>110.0</ele><time>2026-04-15T12:11:29.39Z</time></trkpt><trkpt lat="46.07407" lon="13.19881"><ele>110.0</ele><time>2026-04-15T12:11:30.391Z</time></trkpt><trkpt lat="46.0739983" lon="13.1987667"><ele>110.0</ele><time>2026-04-15T12:11:31.39Z</time></trkpt><trkpt lat="46.07392" lon="13.1987017"><ele>109.99999999999999</ele><time>2026-04-15T12:11:32.39Z</time></trkpt><trkpt lat="46.073835" lon="13.1986283"><ele>110.0</ele><time>2026-04-15T12:11:33.39Z</time></trkpt><trkpt lat="46.07374" lon="13.1985367"><ele>110.25</ele><time>2026-04-15T12:11:34.39Z</time></trkpt><trkpt lat="46.07364" lon="13.19845"><ele>110.5</ele><time>2026-04-15T12:11:35.39Z</time></trkpt><trkpt lat="46.0735333" lon="13.198355"><ele>110.75</ele><time>2026-04-15T12:11:36.391Z</time></trkpt><trkpt lat="46.0734233" lon="13.1982533"><ele>111.0</ele><time>2026-04-15T12:11:37.39Z</time></trkpt><trkpt lat="46.073315" lon="13.1981483"><ele>111.5</ele><time>2026-04-15T12:11:38.392Z</time></trkpt><trkpt lat="46.0732067" lon="13.1980433"><ele>112.0</ele><time>2026-04-15T12:11:39.39Z</time></trkpt><trkpt lat="46.073105" lon="13.1979467"><ele>112.5</ele><time>2026-04-15T12:11:40.391Z</time></trkpt><trkpt lat="46.0730033" lon="13.1978617"><ele>113.0</ele><time>2026-04-15T12:11:41.391Z</time></trkpt><trkpt lat="46.07292" lon="13.1977783"><ele>112.99999999999999</ele><time>2026-04-15T12:11:42.39Z</time></trkpt><trkpt lat="46.072855" lon="13.19768"><ele>113.0</ele><time>2026-04-15T12:11:43.39Z</time></trkpt><trkpt lat="46.0728167" lon="13.1975617"><ele>113.0</ele><time>2026-04-15T12:11:44.39Z</time></trkpt><trkpt lat="46.0728067" lon="13.197445"><ele>113.0</ele><time>2026-04-15T12:11:45.391Z</time></trkpt><trkpt lat="46.07282" lon="13.1973333"><ele>112.99999999999999</ele><time>2026-04-15T12:11:46.39Z</time></trkpt><trkpt lat="46.0728733" lon="13.1972333"><ele>113.0</ele><time>2026-04-15T12:11:47.391Z</time></trkpt><trkpt lat="46.0729333" lon="13.1971633"><ele>112.80000000000001</ele><time>2026-04-15T12:11:48.39Z</time></trkpt><trkpt lat="46.0730133" lon="13.197115"><ele>112.60000000000001</ele><time>2026-04-15T12:11:49.391Z</time></trkpt><trkpt lat="46.0731017" lon="13.197085"><ele>112.39999999999999</ele><time>2026-04-15T12:11:50.39Z</time></trkpt><trkpt lat="46.073195" lon="13.1970533"><ele>112.19999999999999</ele><time>2026-04-15T12:11:51.391Z</time></trkpt><trkpt lat="46.0733067" lon="13.1970417"><ele>112.0</ele><time>2026-04-15T12:11:52.392Z</time></trkpt><trkpt lat="46.0734417" lon="13.1970283"><ele>112.0</ele><time>2026-04-15T12:11:53.389Z</time></trkpt><trkpt lat="46.07356" lon="13.1969933"><ele>112.0</ele><time>2026-04-15T12:11:54.39Z</time></trkpt><trkpt lat="46.0736933" lon="13.1969417"><ele>112.0</ele><time>2026-04-15T12:11:55.391Z</time></trkpt><trkpt lat="46.0738433" lon="13.19688"><ele>112.0</ele><time>2026-04-15T12:11:56.391Z</time></trkpt><trkpt lat="46.0740017" lon="13.19681"><ele>111.0</ele><time>2026-04-15T12:11:57.391Z</time></trkpt><trkpt lat="46.074165" lon="13.196735"><ele>110.0</ele><time>2026-04-15T12:11:58.389Z</time></trkpt><trkpt lat="46.074345" lon="13.19665"><ele>109.0</ele><time>2026-04-15T12:11:59.39Z</time></trkpt><trkpt lat="46.0745183" lon="13.19657"><ele>109.33333333333334</ele><time>2026-04-15T12:12:00.39Z</time></trkpt><trkpt lat="46.07469" lon="13.19647"><ele>109.66666666666666</ele><time>2026-04-15T12:12:01.391Z</time></trkpt><trkpt lat="46.074865" lon="13.19636"><ele>110.0</ele><time>2026-04-15T12:12:02.39Z</time></trkpt><trkpt lat="46.0750417" lon="13.1962417"><ele>110.0</ele><time>2026-04-15T12:12:03.392Z</time></trkpt><trkpt lat="46.0752183" lon="13.1961067"><ele>110.0</ele><time>2026-04-15T12:12:04.39Z</time></trkpt><trkpt lat="46.0753917" lon="13.1959633"><ele>110.0</ele><time>2026-04-15T12:12:05.391Z</time></trkpt><trkpt lat="46.0755667" lon="13.1958167"><ele>110.66666666666666</ele><time>2026-04-15T12:12:06.39Z</time></trkpt><trkpt lat="46.0757383" lon="13.1956667"><ele>111.33333333333334</ele><time>2026-04-15T12:12:07.39Z</time></trkpt><trkpt lat="46.075915" lon="13.1954967"><ele>112.0</ele><time>2026-04-15T12:12:08.39Z</time></trkpt><trkpt lat="46.0760917" lon="13.1953267"><ele>112.0</ele><time>2026-04-15T12:12:09.39Z</time></trkpt><trkpt lat="46.0762617" lon="13.1951583"><ele>112.0</ele><time>2026-04-15T12:12:10.391Z</time></trkpt><trkpt lat="46.0764317" lon="13.1949917"><ele>112.0</ele><time>2026-04-15T12:12:11.39Z</time></trkpt><trkpt lat="46.0765983" lon="13.1948283"><ele>111.33333333333334</ele><time>2026-04-15T12:12:12.391Z</time></trkpt><trkpt lat="46.0767633" lon="13.194665"><ele>110.66666666666666</ele><time>2026-04-15T12:12:13.391Z</time></trkpt><trkpt lat="46.076925" lon="13.1945067"><ele>110.0</ele><time>2026-04-15T12:12:14.389Z</time></trkpt><trkpt lat="46.0770867" lon="13.1943367"><ele>110.0</ele><time>2026-04-15T12:12:15.391Z</time></trkpt><trkpt lat="46.0772517" lon="13.1941567"><ele>110.0</ele><time>2026-04-15T12:12:16.391Z</time></trkpt><trkpt lat="46.077425" lon="13.1939717"><ele>110.0</ele><time>2026-04-15T12:12:17.39Z</time></trkpt><trkpt lat="46.07761" lon="13.1937867"><ele>109.0</ele><time>2026-04-15T12:12:18.391Z</time></trkpt><trkpt lat="46.0778" lon="13.1936033"><ele>108.0</ele><time>2026-04-15T12:12:19.392Z</time></trkpt><trkpt lat="46.077995" lon="13.1934167"><ele>108.0</ele><time>2026-04-15T12:12:20.389Z</time></trkpt><trkpt lat="46.0781933" lon="13.19324"><ele>108.0</ele><time>2026-04-15T12:12:21.39Z</time></trkpt><trkpt lat="46.0783933" lon="13.1930667"><ele>108.5</ele><time>2026-04-15T12:12:22.391Z</time></trkpt><trkpt lat="46.078595" lon="13.1929033"><ele>109.0</ele><time>2026-04-15T12:12:23.391Z</time></trkpt><trkpt lat="46.07879" lon="13.1927567"><ele>109.0</ele><time>2026-04-15T12:12:24.39Z</time></trkpt><trkpt lat="46.0789817" lon="13.1926217"><ele>109.0</ele><time>2026-04-15T12:12:25.391Z</time></trkpt><trkpt lat="46.0791783" lon="13.1924917"><ele>109.0</ele><time>2026-04-15T12:12:26.391Z</time></trkpt><trkpt lat="46.07937" lon="13.192365"><ele>108.33333333333334</ele><time>2026-04-15T12:12:27.39Z</time></trkpt><trkpt lat="46.07957" lon="13.1922417"><ele>107.66666666666666</ele><time>2026-04-15T12:12:28.391Z</time></trkpt><trkpt lat="46.07977" lon="13.1921283"><ele>107.0</ele><time>2026-04-15T12:12:29.39Z</time></trkpt><trkpt lat="46.079975" lon="13.1920217"><ele>107.0</ele><time>2026-04-15T12:12:30.391Z</time></trkpt><trkpt lat="46.08018" lon="13.1919367"><ele>107.0</ele><time>2026-04-15T12:12:31.39Z</time></trkpt><trkpt lat="46.0803817" lon="13.1918683"><ele>107.0</ele><time>2026-04-15T12:12:32.39Z</time></trkpt><trkpt lat="46.0805883" lon="13.191805"><ele>109.0</ele><time>2026-04-15T12:12:33.391Z</time></trkpt><trkpt lat="46.0807933" lon="13.1917533"><ele>111.0</ele><time>2026-04-15T12:12:34.393Z</time></trkpt><trkpt lat="46.081005" lon="13.1917067"><ele>113.0</ele><time>2026-04-15T12:12:35.39Z</time></trkpt><trkpt lat="46.0812183" lon="13.19167"><ele>113.0</ele><time>2026-04-15T12:12:36.391Z</time></trkpt><trkpt lat="46.0814317" lon="13.1916433"><ele>113.0</ele><time>2026-04-15T12:12:37.39Z</time></trkpt><trkpt lat="46.0816433" lon="13.191625"><ele>113.0</ele><time>2026-04-15T12:12:38.392Z</time></trkpt><trkpt lat="46.0818583" lon="13.1916133"><ele>112.33333333333333</ele><time>2026-04-15T12:12:39.393Z</time></trkpt><trkpt lat="46.0820717" lon="13.1916183"><ele>111.66666666666666</ele><time>2026-04-15T12:12:40.39Z</time></trkpt><trkpt lat="46.0822817" lon="13.19163"><ele>111.0</ele><time>2026-04-15T12:12:41.391Z</time></trkpt><trkpt lat="46.082495" lon="13.19165"><ele>112.66666666666666</ele><time>2026-04-15T12:12:42.39Z</time></trkpt><trkpt lat="46.08271" lon="13.1916867"><ele>114.33333333333333</ele><time>2026-04-15T12:12:43.39Z</time></trkpt><trkpt lat="46.0829233" lon="13.1917267"><ele>116.0</ele><time>2026-04-15T12:12:44.391Z</time></trkpt><trkpt lat="46.08314" lon="13.1917867"><ele>116.66666666666666</ele><time>2026-04-15T12:12:45.391Z</time></trkpt><trkpt lat="46.0833583" lon="13.1918617"><ele>117.33333333333334</ele><time>2026-04-15T12:12:46.389Z</time></trkpt><trkpt lat="46.0835683" lon="13.1919517"><ele>118.0</ele><time>2026-04-15T12:12:47.39Z</time></trkpt><trkpt lat="46.0837833" lon="13.1920483"><ele>118.0</ele><time>2026-04-15T12:12:48.39Z</time></trkpt><trkpt lat="46.0839983" lon="13.1921467"><ele>118.0</ele><time>2026-04-15T12:12:49.39Z</time></trkpt><trkpt lat="46.0842083" lon="13.1922483"><ele>118.0</ele><time>2026-04-15T12:12:50.391Z</time></trkpt><trkpt lat="46.084425" lon="13.1923617"><ele>117.0</ele><time>2026-04-15T12:12:51.39Z</time></trkpt><trkpt lat="46.08465" lon="13.1924717"><ele>116.0</ele><time>2026-04-15T12:12:52.391Z</time></trkpt><trkpt lat="46.0848717" lon="13.19258"><ele>115.0</ele><time>2026-04-15T12:12:53.392Z</time></trkpt><trkpt lat="46.085095" lon="13.1926883"><ele>114.0</ele><time>2026-04-15T12:12:54.39Z</time></trkpt><trkpt lat="46.0853167" lon="13.1927983"><ele>114.0</ele><time>2026-04-15T12:12:55.39Z</time></trkpt><trkpt lat="46.08554" lon="13.19291"><ele>114.0</ele><time>2026-04-15T12:12:56.39Z</time></trkpt><trkpt lat="46.0857567" lon="13.19302"><ele>113.5</ele><time>2026-04-15T12:12:57.391Z</time></trkpt><trkpt lat="46.0859767" lon="13.19313"><ele>113.0</ele><time>2026-04-15T12:12:58.391Z</time></trkpt><trkpt lat="46.086195" lon="13.1932383"><ele>115.0</ele><time>2026-04-15T12:12:59.391Z</time></trkpt><trkpt lat="46.0864217" lon="13.1933467"><ele>117.0</ele><time>2026-04-15T12:13:00.391Z</time></trkpt><trkpt lat="46.08664" lon="13.1934517"><ele>117.0</ele><time>2026-04-15T12:13:01.391Z</time></trkpt><trkpt lat="46.0868567" lon="13.193555"><ele>117.0</ele><time>2026-04-15T12:13:02.392Z</time></trkpt><trkpt lat="46.0870717" lon="13.19366"><ele>117.0</ele><time>2026-04-15T12:13:03.391Z</time></trkpt><trkpt lat="46.0872817" lon="13.19376"><ele>117.0</ele><time>2026-04-15T12:13:04.39Z</time></trkpt><trkpt lat="46.0874883" lon="13.193855"><ele>117.0</ele><time>2026-04-15T12:13:05.39Z</time></trkpt><trkpt lat="46.0876917" lon="13.19395"><ele>117.66666666666666</ele><time>2026-04-15T12:13:06.391Z</time></trkpt><trkpt lat="46.0878967" lon="13.194045"><ele>118.33333333333333</ele><time>2026-04-15T12:13:07.392Z</time></trkpt><trkpt lat="46.0881017" lon="13.19414"><ele>119.0</ele><time>2026-04-15T12:13:08.391Z</time></trkpt><trkpt lat="46.08831" lon="13.1942367"><ele>119.0</ele><time>2026-04-15T12:13:09.39Z</time></trkpt><trkpt lat="46.0885167" lon="13.1943333"><ele>119.0</ele><time>2026-04-15T12:13:10.391Z</time></trkpt><trkpt lat="46.0887283" lon="13.19443"><ele>119.0</ele><time>2026-04-15T12:13:11.39Z</time></trkpt><trkpt lat="46.08894" lon="13.1945283"><ele>119.0</ele><time>2026-04-15T12:13:12.391Z</time></trkpt><trkpt lat="46.08915" lon="13.194625"><ele>119.0</ele><time>2026-04-15T12:13:13.391Z</time></trkpt><trkpt lat="46.0893583" lon="13.1947233"><ele>119.0</ele><time>2026-04-15T12:13:14.39Z</time></trkpt><trkpt lat="46.0895683" lon="13.1948267"><ele>119.33333333333333</ele><time>2026-04-15T12:13:15.391Z</time></trkpt><trkpt lat="46.0897783" lon="13.19493"><ele>119.66666666666666</ele><time>2026-04-15T12:13:16.39Z</time></trkpt><trkpt lat="46.08999" lon="13.195035"><ele>120.0</ele><time>2026-04-15T12:13:17.391Z</time></trkpt><trkpt lat="46.0902" lon="13.1951383"><ele>120.0</ele><time>2026-04-15T12:13:18.39Z</time></trkpt><trkpt lat="46.0904167" lon="13.1952433"><ele>120.0</ele><time>2026-04-15T12:13:19.39Z</time></trkpt><trkpt lat="46.0906317" lon="13.1953483"><ele>119.5</ele><time>2026-04-15T12:13:20.39Z</time></trkpt><trkpt lat="46.090845" lon="13.1954517"><ele>119.0</ele><time>2026-04-15T12:13:21.391Z</time></trkpt><trkpt lat="46.0910617" lon="13.195555"><ele>119.0</ele><time>2026-04-15T12:13:22.39Z</time></trkpt><trkpt lat="46.0912667" lon="13.1956533"><ele>119.0</ele><time>2026-04-15T12:13:23.391Z</time></trkpt><trkpt lat="46.0914783" lon="13.195755"><ele>119.0</ele><time>2026-04-15T12:13:24.391Z</time></trkpt><trkpt lat="46.0916883" lon="13.1958567"><ele>120.5</ele><time>2026-04-15T12:13:25.39Z</time></trkpt><trkpt lat="46.0919033" lon="13.1959567"><ele>122.0</ele><time>2026-04-15T12:13:26.391Z</time></trkpt><trkpt lat="46.0921217" lon="13.19606"><ele>122.0</ele><time>2026-04-15T12:13:27.391Z</time></trkpt><trkpt lat="46.0923383" lon="13.1961667"><ele>122.0</ele><time>2026-04-15T12:13:28.391Z</time></trkpt><trkpt lat="46.0925567" lon="13.1962733"><ele>121.66666666666666</ele><time>2026-04-15T12:13:29.391Z</time></trkpt><trkpt lat="46.0927717" lon="13.196375"><ele>121.33333333333334</ele><time>2026-04-15T12:13:30.393Z</time></trkpt><trkpt lat="46.0929833" lon="13.196475"><ele>121.0</ele><time>2026-04-15T12:13:31.39Z</time></trkpt><trkpt lat="46.0932" lon="13.1965733"><ele>120.5</ele><time>2026-04-15T12:13:32.39Z</time></trkpt><trkpt lat="46.0934183" lon="13.1966783"><ele>120.0</ele><time>2026-04-15T12:13:33.39Z</time></trkpt><trkpt lat="46.0936367" lon="13.19678"><ele>120.0</ele><time>2026-04-15T12:13:34.39Z</time></trkpt><trkpt lat="46.0938533" lon="13.196885"><ele>120.0</ele><time>2026-04-15T12:13:35.392Z</time></trkpt><trkpt lat="46.0940717" lon="13.1969883"><ele>120.5</ele><time>2026-04-15T12:13:36.391Z</time></trkpt><trkpt lat="46.0942917" lon="13.1970983"><ele>121.0</ele><time>2026-04-15T12:13:37.391Z</time></trkpt><trkpt lat="46.0945117" lon="13.1972083"><ele>121.0</ele><time>2026-04-15T12:13:38.392Z</time></trkpt><trkpt lat="46.0947283" lon="13.197315"><ele>121.0</ele><time>2026-04-15T12:13:39.391Z</time></trkpt><trkpt lat="46.094945" lon="13.1974217"><ele>120.5</ele><time>2026-04-15T12:13:40.391Z</time></trkpt><trkpt lat="46.0951567" lon="13.1975267"><ele>120.0</ele><time>2026-04-15T12:13:41.393Z</time></trkpt><trkpt lat="46.095375" lon="13.1976333"><ele>120.0</ele><time>2026-04-15T12:13:42.392Z</time></trkpt><trkpt lat="46.0955933" lon="13.1977367"><ele>120.0</ele><time>2026-04-15T12:13:43.39Z</time></trkpt><trkpt lat="46.0958083" lon="13.1978383"><ele>121.0</ele><time>2026-04-15T12:13:44.39Z</time></trkpt><trkpt lat="46.0960217" lon="13.19794"><ele>122.0</ele><time>2026-04-15T12:13:45.391Z</time></trkpt><trkpt lat="46.0962383" lon="13.1980383"><ele>122.0</ele><time>2026-04-15T12:13:46.39Z</time></trkpt><trkpt lat="46.0964483" lon="13.1981267"><ele>122.0</ele><time>2026-04-15T12:13:47.39Z</time></trkpt><trkpt lat="46.0966617" lon="13.1982233"><ele>122.0</ele><time>2026-04-15T12:13:48.39Z</time></trkpt><trkpt lat="46.0968717" lon="13.1983233"><ele>121.66666666666666</ele><time>2026-04-15T12:13:49.391Z</time></trkpt><trkpt lat="46.0970767" lon="13.1984233"><ele>121.33333333333334</ele><time>2026-04-15T12:13:50.391Z</time></trkpt><trkpt lat="46.0972767" lon="13.1985183"><ele>121.0</ele><time>2026-04-15T12:13:51.39Z</time></trkpt><trkpt lat="46.0974783" lon="13.1986167"><ele>122.0</ele><time>2026-04-15T12:13:52.391Z</time></trkpt><trkpt lat="46.09768" lon="13.198715"><ele>123.0</ele><time>2026-04-15T12:13:53.39Z</time></trkpt><trkpt lat="46.097885" lon="13.198815"><ele>124.0</ele><time>2026-04-15T12:13:54.39Z</time></trkpt><trkpt lat="46.0980817" lon="13.1989133"><ele>123.66666666666667</ele><time>2026-04-15T12:13:55.392Z</time></trkpt><trkpt lat="46.0982833" lon="13.1990083"><ele>123.33333333333334</ele><time>2026-04-15T12:13:56.391Z</time></trkpt><trkpt lat="46.098485" lon="13.1991017"><ele>123.0</ele><time>2026-04-15T12:13:57.39Z</time></trkpt><trkpt lat="46.09868" lon="13.1991933"><ele>123.0</ele><time>2026-04-15T12:13:58.39Z</time></trkpt><trkpt lat="46.0988717" lon="13.199285"><ele>123.0</ele><time>2026-04-15T12:13:59.39Z</time></trkpt><trkpt lat="46.0990617" lon="13.199375"><ele>123.0</ele><time>2026-04-15T12:14:00.392Z</time></trkpt><trkpt lat="46.09925" lon="13.1994683"><ele>122.33333333333334</ele><time>2026-04-15T12:14:01.39Z</time></trkpt><trkpt lat="46.0994333" lon="13.1995567"><ele>121.66666666666667</ele><time>2026-04-15T12:14:02.391Z</time></trkpt><trkpt lat="46.099615" lon="13.1996433"><ele>121.0</ele><time>2026-04-15T12:14:03.392Z</time></trkpt><trkpt lat="46.0997983" lon="13.19973"><ele>121.66666666666667</ele><time>2026-04-15T12:14:04.392Z</time></trkpt><trkpt lat="46.0999817" lon="13.1998217"><ele>122.33333333333334</ele><time>2026-04-15T12:14:05.392Z</time></trkpt><trkpt lat="46.10016" lon="13.19991"><ele>123.0</ele><time>2026-04-15T12:14:06.39Z</time></trkpt><trkpt lat="46.10034" lon="13.2000033"><ele>123.0</ele><time>2026-04-15T12:14:07.39Z</time></trkpt><trkpt lat="46.1005183" lon="13.200095"><ele>123.0</ele><time>2026-04-15T12:14:08.39Z</time></trkpt><trkpt lat="46.1006967" lon="13.2001867"><ele>123.0</ele><time>2026-04-15T12:14:09.39Z</time></trkpt><trkpt lat="46.1008733" lon="13.20028"><ele>123.66666666666666</ele><time>2026-04-15T12:14:10.392Z</time></trkpt><trkpt lat="46.1010467" lon="13.2003683"><ele>124.33333333333333</ele><time>2026-04-15T12:14:11.391Z</time></trkpt><trkpt lat="46.1012183" lon="13.200455"><ele>125.0</ele><time>2026-04-15T12:14:12.392Z</time></trkpt><trkpt lat="46.1013833" lon="13.200535"><ele>125.0</ele><time>2026-04-15T12:14:13.392Z</time></trkpt><trkpt lat="46.1015433" lon="13.2006117"><ele>125.0</ele><time>2026-04-15T12:14:14.393Z</time></trkpt><trkpt lat="46.1016967" lon="13.20068"><ele>125.0</ele><time>2026-04-15T12:14:15.392Z</time></trkpt><trkpt lat="46.101845" lon="13.200755"><ele>124.5</ele><time>2026-04-15T12:14:16.392Z</time></trkpt><trkpt lat="46.101985" lon="13.2008367"><ele>124.0</ele><time>2026-04-15T12:14:17.391Z</time></trkpt><trkpt lat="46.1021067" lon="13.200945"><ele>123.5</ele><time>2026-04-15T12:14:18.393Z</time></trkpt><trkpt lat="46.1022117" lon="13.2010867"><ele>123.0</ele><time>2026-04-15T12:14:19.391Z</time></trkpt><trkpt lat="46.1022867" lon="13.201255"><ele>123.0</ele><time>2026-04-15T12:14:20.391Z</time></trkpt><trkpt lat="46.1023283" lon="13.2014483"><ele>123.0</ele><time>2026-04-15T12:14:21.391Z</time></trkpt><trkpt lat="46.1023483" lon="13.201645"><ele>123.0</ele><time>2026-04-15T12:14:22.39Z</time></trkpt><trkpt lat="46.1023483" lon="13.2018433"><ele>123.0</ele><time>2026-04-15T12:14:23.391Z</time></trkpt><trkpt lat="46.10233" lon="13.20204"><ele>123.0</ele><time>2026-04-15T12:14:24.39Z</time></trkpt><trkpt lat="46.1023133" lon="13.2022267"><ele>123.0</ele><time>2026-04-15T12:14:25.39Z</time></trkpt><trkpt lat="46.102285" lon="13.2024167"><ele>123.0</ele><time>2026-04-15T12:14:26.391Z</time></trkpt><trkpt lat="46.1022583" lon="13.202625"><ele>123.0</ele><time>2026-04-15T12:14:27.391Z</time></trkpt><trkpt lat="46.1022367" lon="13.202835"><ele>123.25</ele><time>2026-04-15T12:14:28.391Z</time></trkpt><trkpt lat="46.1022133" lon="13.2030417"><ele>123.5</ele><time>2026-04-15T12:14:29.39Z</time></trkpt><trkpt lat="46.1021933" lon="13.203255"><ele>123.75</ele><time>2026-04-15T12:14:30.39Z</time></trkpt><trkpt lat="46.1021733" lon="13.20347"><ele>124.0</ele><time>2026-04-15T12:14:31.391Z</time></trkpt><trkpt lat="46.1021467" lon="13.203675"><ele>124.5</ele><time>2026-04-15T12:14:32.39Z</time></trkpt><trkpt lat="46.10211" lon="13.203865"><ele>125.0</ele><time>2026-04-15T12:14:33.391Z</time></trkpt><trkpt lat="46.1020583" lon="13.2040417"><ele>125.5</ele><time>2026-04-15T12:14:34.391Z</time></trkpt><trkpt lat="46.1019933" lon="13.2042117"><ele>126.0</ele><time>2026-04-15T12:14:35.39Z</time></trkpt><trkpt lat="46.1019167" lon="13.2043767"><ele>126.5</ele><time>2026-04-15T12:14:36.391Z</time></trkpt><trkpt lat="46.10183" lon="13.2045183"><ele>127.0</ele><time>2026-04-15T12:14:37.391Z</time></trkpt><trkpt lat="46.1017333" lon="13.2046533"><ele>127.5</ele><time>2026-04-15T12:14:38.39Z</time></trkpt><trkpt lat="46.1016367" lon="13.2047867"><ele>128.0</ele><time>2026-04-15T12:14:39.391Z</time></trkpt><trkpt lat="46.1015333" lon="13.2049267"><ele>128.0</ele><time>2026-04-15T12:14:40.392Z</time></trkpt><trkpt lat="46.101425" lon="13.2050683"><ele>128.0</ele><time>2026-04-15T12:14:41.392Z</time></trkpt><trkpt lat="46.1013183" lon="13.2052167"><ele>128.0</ele><time>2026-04-15T12:14:42.392Z</time></trkpt><trkpt lat="46.1012033" lon="13.20537"><ele>128.0</ele><time>2026-04-15T12:14:43.391Z</time></trkpt><trkpt lat="46.101085" lon="13.2055217"><ele>128.0</ele><time>2026-04-15T12:14:44.392Z</time></trkpt><trkpt lat="46.1009733" lon="13.2056683"><ele>128.0</ele><time>2026-04-15T12:14:45.39Z</time></trkpt><trkpt lat="46.1008717" lon="13.20581"><ele>128.0</ele><time>2026-04-15T12:14:46.39Z</time></trkpt><trkpt lat="46.1007717" lon="13.2059367"><ele>128.0</ele><time>2026-04-15T12:14:47.39Z</time></trkpt><trkpt lat="46.10069" lon="13.2060433"><ele>128.0</ele><time>2026-04-15T12:14:48.397Z</time></trkpt><trkpt lat="46.1006133" lon="13.206135"><ele>128.0</ele><time>2026-04-15T12:14:49.393Z</time></trkpt><trkpt lat="46.1005383" lon="13.2061867"><ele>128.0</ele><time>2026-04-15T12:14:50.391Z</time></trkpt><trkpt lat="46.10046" lon="13.206205"><ele>127.99999999999999</ele><time>2026-04-15T12:14:51.394Z</time></trkpt><trkpt lat="46.1003817" lon="13.2062033"><ele>128.0</ele><time>2026-04-15T12:14:52.391Z</time></trkpt><trkpt lat="46.1003067" lon="13.2062"><ele>128.0</ele><time>2026-04-15T12:14:53.392Z</time></trkpt><trkpt lat="46.1002333" lon="13.2061867"><ele>128.0</ele><time>2026-04-15T12:14:54.391Z</time></trkpt><trkpt lat="46.1001233" lon="13.206195"><ele>127.99999999999999</ele><time>2026-04-15T12:14:56.39Z</time></trkpt><trkpt lat="46.1000317" lon="13.20622"><ele>128.0</ele><time>2026-04-15T12:14:58.39Z</time></trkpt><trkpt lat="46.0999617" lon="13.2062433"><ele>128.0</ele><time>2026-04-15T12:15:00.391Z</time></trkpt><trkpt lat="46.0999167" lon="13.2063233"><ele>127.99999999999999</ele><time>2026-04-15T12:15:02.39Z</time></trkpt><trkpt lat="46.0999333" lon="13.206425"><ele>128.0</ele><time>2026-04-15T12:15:04.391Z</time></trkpt><trkpt lat="46.0999733" lon="13.206505"><ele>128.0</ele><time>2026-04-15T12:15:06.392Z</time></trkpt><trkpt lat="46.1000467" lon="13.206465"><ele>127.99999999999999</ele><time>2026-04-15T12:18:18.39Z</time></trkpt><trkpt lat="46.0999917" lon="13.2063833"><ele>128.0</ele><time>2026-04-15T12:19:07.394Z</time></trkpt><trkpt lat="46.0999317" lon="13.2063483"><ele>128.0</ele><time>2026-04-15T12:19:13.391Z</time></trkpt><trkpt lat="46.099845" lon="13.206325"><ele>127.99999999999999</ele><time>2026-04-15T12:19:16.39Z</time></trkpt><trkpt lat="46.09992" lon="13.2063667"><ele>128.0</ele><time>2026-04-15T12:19:36.391Z</time></trkpt><trkpt lat="46.100025" lon="13.2063767"><ele>128.0</ele><time>2026-04-15T12:19:56.39Z</time></trkpt><trkpt lat="46.10006" lon="13.2064817"><ele>128.0</ele><time>2026-04-15T12:23:56.39Z</time></trkpt><trkpt lat="46.1001067" lon="13.2065633"><ele>127.99999999999999</ele><time>2026-04-15T12:24:00.391Z</time></trkpt><trkpt lat="46.100085" lon="13.2066717"><ele>128.0</ele><time>2026-04-15T12:24:03.391Z</time></trkpt><trkpt lat="46.1000117" lon="13.20677"><ele>128.0</ele><time>2026-04-15T12:24:05.39Z</time></trkpt><trkpt lat="46.09997" lon="13.2068383"><ele>128.0</ele><time>2026-04-15T12:24:06.391Z</time></trkpt><trkpt lat="46.0999083" lon="13.2069217"><ele>128.0</ele><time>2026-04-15T12:24:07.39Z</time></trkpt><trkpt lat="46.0998333" lon="13.2070267"><ele>128.0</ele><time>2026-04-15T12:24:08.39Z</time></trkpt><trkpt lat="46.0997483" lon="13.2071417"><ele>128.0</ele><time>2026-04-15T12:24:09.39Z</time></trkpt><trkpt lat="46.0996567" lon="13.2072633"><ele>128.0</ele><time>2026-04-15T12:24:10.391Z</time></trkpt><trkpt lat="46.0995617" lon="13.2073933"><ele>128.0</ele><time>2026-04-15T12:24:11.393Z</time></trkpt><trkpt lat="46.0994617" lon="13.2075267"><ele>128.0</ele><time>2026-04-15T12:24:12.39Z</time></trkpt><trkpt lat="46.0993533" lon="13.2076767"><ele>128.0</ele><time>2026-04-15T12:24:13.391Z</time></trkpt><trkpt lat="46.0992417" lon="13.207815"><ele>128.0</ele><time>2026-04-15T12:24:14.391Z</time></trkpt><trkpt lat="46.0991167" lon="13.207955"><ele>128.0</ele><time>2026-04-15T12:24:15.391Z</time></trkpt><trkpt lat="46.0990033" lon="13.2081"><ele>128.0</ele><time>2026-04-15T12:24:16.391Z</time></trkpt><trkpt lat="46.098885" lon="13.2082517"><ele>128.33333333333331</ele><time>2026-04-15T12:24:17.391Z</time></trkpt><trkpt lat="46.0987667" lon="13.208405"><ele>128.66666666666666</ele><time>2026-04-15T12:24:18.391Z</time></trkpt><trkpt lat="46.0986467" lon="13.2085683"><ele>129.0</ele><time>2026-04-15T12:24:19.39Z</time></trkpt><trkpt lat="46.0985167" lon="13.2087417"><ele>129.0</ele><time>2026-04-15T12:24:20.39Z</time></trkpt><trkpt lat="46.0983917" lon="13.2089167"><ele>129.0</ele><time>2026-04-15T12:24:21.392Z</time></trkpt><trkpt lat="46.0982617" lon="13.2090867"><ele>129.0</ele><time>2026-04-15T12:24:22.391Z</time></trkpt><trkpt lat="46.0981267" lon="13.2092567"><ele>128.0</ele><time>2026-04-15T12:24:23.391Z</time></trkpt><trkpt lat="46.0979933" lon="13.2094317"><ele>127.0</ele><time>2026-04-15T12:24:24.392Z</time></trkpt><trkpt lat="46.0978567" lon="13.209605"><ele>126.0</ele><time>2026-04-15T12:24:25.391Z</time></trkpt><trkpt lat="46.097715" lon="13.2097817"><ele>125.66666666666666</ele><time>2026-04-15T12:24:26.39Z</time></trkpt><trkpt lat="46.0975767" lon="13.2099617"><ele>125.33333333333333</ele><time>2026-04-15T12:24:27.39Z</time></trkpt><trkpt lat="46.0974333" lon="13.2101467"><ele>125.0</ele><time>2026-04-15T12:24:28.391Z</time></trkpt><trkpt lat="46.0972867" lon="13.2103317"><ele>126.0</ele><time>2026-04-15T12:24:29.391Z</time></trkpt><trkpt lat="46.097135" lon="13.210515"><ele>127.0</ele><time>2026-04-15T12:24:30.392Z</time></trkpt><trkpt lat="46.096985" lon="13.2106983"><ele>128.0</ele><time>2026-04-15T12:24:31.391Z</time></trkpt><trkpt lat="46.0968317" lon="13.21089"><ele>128.0</ele><time>2026-04-15T12:24:32.391Z</time></trkpt><trkpt lat="46.0966817" lon="13.2110783"><ele>128.0</ele><time>2026-04-15T12:24:33.393Z</time></trkpt><trkpt lat="46.0965383" lon="13.211265"><ele>128.0</ele><time>2026-04-15T12:24:34.391Z</time></trkpt><trkpt lat="46.09639" lon="13.21145"><ele>126.66666666666666</ele><time>2026-04-15T12:24:35.393Z</time></trkpt><trkpt lat="46.0962417" lon="13.211635"><ele>125.33333333333334</ele><time>2026-04-15T12:24:36.391Z</time></trkpt><trkpt lat="46.0960933" lon="13.211825"><ele>124.0</ele><time>2026-04-15T12:24:37.391Z</time></trkpt><trkpt lat="46.0959433" lon="13.2120167"><ele>124.0</ele><time>2026-04-15T12:24:38.391Z</time></trkpt><trkpt lat="46.0957967" lon="13.21221"><ele>124.0</ele><time>2026-04-15T12:24:39.39Z</time></trkpt><trkpt lat="46.0956467" lon="13.2124017"><ele>124.0</ele><time>2026-04-15T12:24:40.392Z</time></trkpt><trkpt lat="46.0954967" lon="13.21259"><ele>124.66666666666667</ele><time>2026-04-15T12:24:41.391Z</time></trkpt><trkpt lat="46.0953483" lon="13.2127767"><ele>125.33333333333334</ele><time>2026-04-15T12:24:42.39Z</time></trkpt><trkpt lat="46.0952067" lon="13.2129617"><ele>126.0</ele><time>2026-04-15T12:24:43.39Z</time></trkpt><trkpt lat="46.0950633" lon="13.2131433"><ele>125.66666666666666</ele><time>2026-04-15T12:24:44.39Z</time></trkpt><trkpt lat="46.0949183" lon="13.21332"><ele>125.33333333333333</ele><time>2026-04-15T12:24:45.39Z</time></trkpt><trkpt lat="46.0947817" lon="13.213495"><ele>125.0</ele><time>2026-04-15T12:24:46.39Z</time></trkpt><trkpt lat="46.0946383" lon="13.2136467"><ele>125.0</ele><time>2026-04-15T12:24:47.392Z</time></trkpt><trkpt lat="46.0944983" lon="13.2137833"><ele>125.0</ele><time>2026-04-15T12:24:48.391Z</time></trkpt><trkpt lat="46.094355" lon="13.2139"><ele>125.0</ele><time>2026-04-15T12:24:49.39Z</time></trkpt><trkpt lat="46.0942133" lon="13.2140017"><ele>124.66666666666666</ele><time>2026-04-15T12:24:50.391Z</time></trkpt><trkpt lat="46.094065" lon="13.214095"><ele>124.33333333333334</ele><time>2026-04-15T12:24:51.391Z</time></trkpt><trkpt lat="46.0939217" lon="13.2141833"><ele>124.0</ele><time>2026-04-15T12:24:52.391Z</time></trkpt><trkpt lat="46.0937817" lon="13.2142617"><ele>124.0</ele><time>2026-04-15T12:24:53.391Z</time></trkpt><trkpt lat="46.0936383" lon="13.2143267"><ele>124.0</ele><time>2026-04-15T12:24:54.392Z</time></trkpt><trkpt lat="46.093495" lon="13.2143767"><ele>124.0</ele><time>2026-04-15T12:24:55.392Z</time></trkpt><trkpt lat="46.0933567" lon="13.2144133"><ele>124.0</ele><time>2026-04-15T12:24:56.392Z</time></trkpt><trkpt lat="46.09322" lon="13.2144417"><ele>123.75</ele><time>2026-04-15T12:24:57.391Z</time></trkpt><trkpt lat="46.0930833" lon="13.21446"><ele>123.5</ele><time>2026-04-15T12:24:58.391Z</time></trkpt><trkpt lat="46.0929583" lon="13.2144817"><ele>123.25</ele><time>2026-04-15T12:24:59.394Z</time></trkpt><trkpt lat="46.09284" lon="13.21453"><ele>123.0</ele><time>2026-04-15T12:25:00.391Z</time></trkpt><trkpt lat="46.09273" lon="13.2146033"><ele>123.0</ele><time>2026-04-15T12:25:01.39Z</time></trkpt><trkpt lat="46.0926467" lon="13.2147117"><ele>123.00000000000001</ele><time>2026-04-15T12:25:02.39Z</time></trkpt><trkpt lat="46.0925983" lon="13.21483"><ele>123.00000000000001</ele><time>2026-04-15T12:25:03.391Z</time></trkpt><trkpt lat="46.09257" lon="13.214935"><ele>123.0</ele><time>2026-04-15T12:25:04.391Z</time></trkpt><trkpt lat="46.0925583" lon="13.215105"><ele>123.0</ele><time>2026-04-15T12:25:06.39Z</time></trkpt><trkpt lat="46.0925683" lon="13.2152883"><ele>123.0</ele><time>2026-04-15T12:25:08.39Z</time></trkpt><trkpt lat="46.0925883" lon="13.2154"><ele>123.00000000000001</ele><time>2026-04-15T12:25:09.391Z</time></trkpt><trkpt lat="46.09263" lon="13.2155167"><ele>123.00000000000001</ele><time>2026-04-15T12:25:10.391Z</time></trkpt><trkpt lat="46.0926867" lon="13.21563"><ele>123.0</ele><time>2026-04-15T12:25:11.389Z</time></trkpt><trkpt lat="46.0927583" lon="13.21573"><ele>123.0</ele><time>2026-04-15T12:25:12.39Z</time></trkpt><trkpt lat="46.0928467" lon="13.2158083"><ele>123.0</ele><time>2026-04-15T12:25:13.39Z</time></trkpt><trkpt lat="46.0929433" lon="13.2158517"><ele>123.00000000000001</ele><time>2026-04-15T12:25:14.389Z</time></trkpt><trkpt lat="46.0930433" lon="13.2158733"><ele>123.00000000000001</ele><time>2026-04-15T12:25:15.389Z</time></trkpt><trkpt lat="46.0931383" lon="13.2159"><ele>123.0</ele><time>2026-04-15T12:25:16.389Z</time></trkpt><trkpt lat="46.09323" lon="13.2159467"><ele>123.0</ele><time>2026-04-15T12:25:17.39Z</time></trkpt><trkpt lat="46.09331" lon="13.21602"><ele>123.0</ele><time>2026-04-15T12:25:18.39Z</time></trkpt><trkpt lat="46.0933683" lon="13.2161233"><ele>123.00000000000001</ele><time>2026-04-15T12:25:19.392Z</time></trkpt><trkpt lat="46.0934017" lon="13.216245"><ele>123.00000000000001</ele><time>2026-04-15T12:25:20.39Z</time></trkpt><trkpt lat="46.0934067" lon="13.2163917"><ele>123.0</ele><time>2026-04-15T12:25:21.391Z</time></trkpt><trkpt lat="46.0933967" lon="13.2165483"><ele>123.0</ele><time>2026-04-15T12:25:22.39Z</time></trkpt><trkpt lat="46.0933883" lon="13.2167233"><ele>123.0</ele><time>2026-04-15T12:25:23.39Z</time></trkpt><trkpt lat="46.0933833" lon="13.2169067"><ele>123.0</ele><time>2026-04-15T12:25:24.39Z</time></trkpt><trkpt lat="46.0933817" lon="13.2170983"><ele>123.0</ele><time>2026-04-15T12:25:25.391Z</time></trkpt><trkpt lat="46.0933783" lon="13.2173"><ele>123.0</ele><time>2026-04-15T12:25:26.389Z</time></trkpt><trkpt lat="46.0933767" lon="13.2174967"><ele>123.0</ele><time>2026-04-15T12:25:27.39Z</time></trkpt><trkpt lat="46.0933717" lon="13.2176983"><ele>123.0</ele><time>2026-04-15T12:25:28.39Z</time></trkpt><trkpt lat="46.09337" lon="13.2179017"><ele>123.0</ele><time>2026-04-15T12:25:29.392Z</time></trkpt><trkpt lat="46.09337" lon="13.2181033"><ele>123.0</ele><time>2026-04-15T12:25:30.39Z</time></trkpt><trkpt lat="46.0933667" lon="13.2183017"><ele>123.0</ele><time>2026-04-15T12:25:31.391Z</time></trkpt><trkpt lat="46.093365" lon="13.2184917"><ele>123.0</ele><time>2026-04-15T12:25:32.389Z</time></trkpt><trkpt lat="46.093365" lon="13.2186817"><ele>123.0</ele><time>2026-04-15T12:25:33.389Z</time></trkpt><trkpt lat="46.0933617" lon="13.21886"><ele>123.0</ele><time>2026-04-15T12:25:34.389Z</time></trkpt><trkpt lat="46.0933533" lon="13.2190283"><ele>123.0</ele><time>2026-04-15T12:25:35.389Z</time></trkpt><trkpt lat="46.0933317" lon="13.2191833"><ele>123.00000000000001</ele><time>2026-04-15T12:25:36.39Z</time></trkpt><trkpt lat="46.0933" lon="13.21931"><ele>123.00000000000001</ele><time>2026-04-15T12:25:37.392Z</time></trkpt><trkpt lat="46.0932533" lon="13.219415"><ele>123.0</ele><time>2026-04-15T12:25:38.39Z</time></trkpt><trkpt lat="46.093185" lon="13.2194883"><ele>123.0</ele><time>2026-04-15T12:25:39.391Z</time></trkpt><trkpt lat="46.0931017" lon="13.219545"><ele>123.16666666666667</ele><time>2026-04-15T12:25:40.389Z</time></trkpt><trkpt lat="46.0930233" lon="13.2196083"><ele>123.33333333333334</ele><time>2026-04-15T12:25:41.39Z</time></trkpt><trkpt lat="46.0929567" lon="13.2196917"><ele>123.5</ele><time>2026-04-15T12:25:42.389Z</time></trkpt><trkpt lat="46.0929117" lon="13.2198083"><ele>123.66666666666667</ele><time>2026-04-15T12:25:43.391Z</time></trkpt><trkpt lat="46.0929017" lon="13.2199283"><ele>123.83333333333334</ele><time>2026-04-15T12:25:44.39Z</time></trkpt><trkpt lat="46.0929267" lon="13.22004"><ele>124.0</ele><time>2026-04-15T12:25:45.389Z</time></trkpt><trkpt lat="46.09298" lon="13.22014"><ele>124.0</ele><time>2026-04-15T12:25:46.389Z</time></trkpt><trkpt lat="46.0930533" lon="13.2202217"><ele>124.0</ele><time>2026-04-15T12:25:47.391Z</time></trkpt><trkpt lat="46.0931383" lon="13.2203"><ele>124.0</ele><time>2026-04-15T12:25:48.39Z</time></trkpt><trkpt lat="46.0932167" lon="13.2203883"><ele>124.0</ele><time>2026-04-15T12:25:49.391Z</time></trkpt><trkpt lat="46.09328" lon="13.2205"><ele>124.0</ele><time>2026-04-15T12:25:50.389Z</time></trkpt><trkpt lat="46.0933317" lon="13.2206433"><ele>123.75</ele><time>2026-04-15T12:25:51.391Z</time></trkpt><trkpt lat="46.0933733" lon="13.2208067"><ele>123.5</ele><time>2026-04-15T12:25:52.39Z</time></trkpt><trkpt lat="46.0934167" lon="13.2209833"><ele>123.25</ele><time>2026-04-15T12:25:53.391Z</time></trkpt><trkpt lat="46.0934617" lon="13.2211717"><ele>123.0</ele><time>2026-04-15T12:25:54.39Z</time></trkpt><trkpt lat="46.093505" lon="13.2213633"><ele>122.75</ele><time>2026-04-15T12:25:55.39Z</time></trkpt><trkpt lat="46.0935467" lon="13.22156"><ele>122.5</ele><time>2026-04-15T12:25:56.389Z</time></trkpt><trkpt lat="46.09359" lon="13.2217633"><ele>122.25</ele><time>2026-04-15T12:25:57.389Z</time></trkpt><trkpt lat="46.0936267" lon="13.2219817"><ele>122.0</ele><time>2026-04-15T12:25:58.39Z</time></trkpt><trkpt lat="46.0936567" lon="13.2222067"><ele>122.33333333333333</ele><time>2026-04-15T12:25:59.39Z</time></trkpt><trkpt lat="46.0936867" lon="13.222435"><ele>122.66666666666666</ele><time>2026-04-15T12:26:00.39Z</time></trkpt><trkpt lat="46.0937167" lon="13.2226683"><ele>123.0</ele><time>2026-04-15T12:26:01.391Z</time></trkpt><trkpt lat="46.0937483" lon="13.2229083"><ele>123.33333333333334</ele><time>2026-04-15T12:26:02.389Z</time></trkpt><trkpt lat="46.0937833" lon="13.2231583"><ele>123.66666666666667</ele><time>2026-04-15T12:26:03.392Z</time></trkpt><trkpt lat="46.0938167" lon="13.22341"><ele>124.0</ele><time>2026-04-15T12:26:04.389Z</time></trkpt><trkpt lat="46.0938517" lon="13.2236617"><ele>124.0</ele><time>2026-04-15T12:26:05.389Z</time></trkpt><trkpt lat="46.093885" lon="13.22391"><ele>124.0</ele><time>2026-04-15T12:26:06.394Z</time></trkpt><trkpt lat="46.093915" lon="13.22416"><ele>124.0</ele><time>2026-04-15T12:26:07.39Z</time></trkpt><trkpt lat="46.093945" lon="13.2244067"><ele>124.0</ele><time>2026-04-15T12:26:08.389Z</time></trkpt><trkpt lat="46.0939783" lon="13.2246533"><ele>124.0</ele><time>2026-04-15T12:26:09.389Z</time></trkpt><trkpt lat="46.0940083" lon="13.2249017"><ele>124.0</ele><time>2026-04-15T12:26:10.391Z</time></trkpt><trkpt lat="46.0940333" lon="13.2251517"><ele>123.66666666666667</ele><time>2026-04-15T12:26:11.391Z</time></trkpt><trkpt lat="46.09406" lon="13.2253983"><ele>123.33333333333334</ele><time>2026-04-15T12:26:12.391Z</time></trkpt><trkpt lat="46.09409" lon="13.225645"><ele>123.0</ele><time>2026-04-15T12:26:13.391Z</time></trkpt><trkpt lat="46.09412" lon="13.2258883"><ele>122.0</ele><time>2026-04-15T12:26:14.392Z</time></trkpt><trkpt lat="46.0941467" lon="13.2261317"><ele>121.0</ele><time>2026-04-15T12:26:15.391Z</time></trkpt><trkpt lat="46.094175" lon="13.2263733"><ele>120.0</ele><time>2026-04-15T12:26:16.389Z</time></trkpt><trkpt lat="46.0942033" lon="13.22661"><ele>120.0</ele><time>2026-04-15T12:26:17.392Z</time></trkpt><trkpt lat="46.094235" lon="13.2268367"><ele>120.0</ele><time>2026-04-15T12:26:18.391Z</time></trkpt><trkpt lat="46.094265" lon="13.227045"><ele>120.0</ele><time>2026-04-15T12:26:19.39Z</time></trkpt><trkpt lat="46.094285" lon="13.2272267"><ele>120.0</ele><time>2026-04-15T12:26:20.391Z</time></trkpt><trkpt lat="46.0943033" lon="13.2273817"><ele>120.66666666666667</ele><time>2026-04-15T12:26:21.391Z</time></trkpt><trkpt lat="46.0943183" lon="13.227525"><ele>121.33333333333334</ele><time>2026-04-15T12:26:22.39Z</time></trkpt><trkpt lat="46.0943283" lon="13.2276567"><ele>122.0</ele><time>2026-04-15T12:26:23.39Z</time></trkpt><trkpt lat="46.0943383" lon="13.22777"><ele>122.66666666666667</ele><time>2026-04-15T12:26:24.391Z</time></trkpt><trkpt lat="46.0943517" lon="13.2278667"><ele>123.33333333333334</ele><time>2026-04-15T12:26:25.391Z</time></trkpt><trkpt lat="46.0943517" lon="13.2279933"><ele>124.0</ele><time>2026-04-15T12:26:27.391Z</time></trkpt><trkpt lat="46.0943267" lon="13.2280783"><ele>124.16666666666667</ele><time>2026-04-15T12:26:29.391Z</time></trkpt><trkpt lat="46.0942833" lon="13.2281933"><ele>124.33333333333334</ele><time>2026-04-15T12:26:31.39Z</time></trkpt><trkpt lat="46.0942333" lon="13.2283583"><ele>124.5</ele><time>2026-04-15T12:26:33.391Z</time></trkpt><trkpt lat="46.0942367" lon="13.2284517"><ele>124.66666666666666</ele><time>2026-04-15T12:26:34.39Z</time></trkpt><trkpt lat="46.094265" lon="13.228535"><ele>124.83333333333333</ele><time>2026-04-15T12:26:35.391Z</time></trkpt><trkpt lat="46.0943133" lon="13.2285983"><ele>125.0</ele><time>2026-04-15T12:26:36.39Z</time></trkpt><trkpt lat="46.0943783" lon="13.2286383"><ele>124.99999999999999</ele><time>2026-04-15T12:26:37.391Z</time></trkpt><trkpt lat="46.0944983" lon="13.228595"><ele>125.0</ele><time>2026-04-15T12:26:39.389Z</time></trkpt><trkpt lat="46.09455" lon="13.22854"><ele>125.0</ele><time>2026-04-15T12:26:40.392Z</time></trkpt><trkpt lat="46.0945983" lon="13.2284733"><ele>125.0</ele><time>2026-04-15T12:26:41.39Z</time></trkpt><trkpt lat="46.0946567" lon="13.2284133"><ele>124.99999999999999</ele><time>2026-04-15T12:26:42.391Z</time></trkpt><trkpt lat="46.09472" lon="13.22838"><ele>125.0</ele><time>2026-04-15T12:26:43.391Z</time></trkpt><trkpt lat="46.0947883" lon="13.2283583"><ele>124.99999999999999</ele><time>2026-04-15T12:26:44.391Z</time></trkpt><trkpt lat="46.0948667" lon="13.2283467"><ele>125.0</ele><time>2026-04-15T12:26:45.391Z</time></trkpt><trkpt lat="46.094955" lon="13.2283367"><ele>125.0</ele><time>2026-04-15T12:26:46.389Z</time></trkpt><trkpt lat="46.0950383" lon="13.22833"><ele>125.0</ele><time>2026-04-15T12:26:47.39Z</time></trkpt><trkpt lat="46.09513" lon="13.2283233"><ele>124.99999999999999</ele><time>2026-04-15T12:26:48.39Z</time></trkpt><trkpt lat="46.0952267" lon="13.228315"><ele>125.0</ele><time>2026-04-15T12:26:49.391Z</time></trkpt><trkpt lat="46.09533" lon="13.2283183"><ele>125.25</ele><time>2026-04-15T12:26:50.391Z</time></trkpt><trkpt lat="46.0954417" lon="13.228315"><ele>125.5</ele><time>2026-04-15T12:26:51.39Z</time></trkpt><trkpt lat="46.0955617" lon="13.2283083"><ele>125.75</ele><time>2026-04-15T12:26:52.391Z</time></trkpt><trkpt lat="46.0956867" lon="13.2283017"><ele>126.0</ele><time>2026-04-15T12:26:53.392Z</time></trkpt><trkpt lat="46.095815" lon="13.228295"><ele>126.0</ele><time>2026-04-15T12:26:54.389Z</time></trkpt><trkpt lat="46.0959433" lon="13.228285"><ele>126.0</ele><time>2026-04-15T12:26:55.394Z</time></trkpt><trkpt lat="46.0960633" lon="13.22827"><ele>126.0</ele><time>2026-04-15T12:26:56.392Z</time></trkpt><trkpt lat="46.09618" lon="13.2282533"><ele>126.0</ele><time>2026-04-15T12:26:57.39Z</time></trkpt><trkpt lat="46.0962933" lon="13.2282417"><ele>126.0</ele><time>2026-04-15T12:26:58.389Z</time></trkpt><trkpt lat="46.096415" lon="13.2282367"><ele>126.0</ele><time>2026-04-15T12:26:59.391Z</time></trkpt><trkpt lat="46.0965433" lon="13.2282317"><ele>126.0</ele><time>2026-04-15T12:27:00.391Z</time></trkpt><trkpt lat="46.0966667" lon="13.2282267"><ele>126.0</ele><time>2026-04-15T12:27:01.391Z</time></trkpt><trkpt lat="46.0968033" lon="13.228215"><ele>126.5</ele><time>2026-04-15T12:27:02.389Z</time></trkpt><trkpt lat="46.0969383" lon="13.2282017"><ele>127.0</ele><time>2026-04-15T12:27:03.391Z</time></trkpt><trkpt lat="46.09707" lon="13.2281817"><ele>127.5</ele><time>2026-04-15T12:27:04.391Z</time></trkpt><trkpt lat="46.0972033" lon="13.2281633"><ele>128.0</ele><time>2026-04-15T12:27:05.391Z</time></trkpt><trkpt lat="46.0973333" lon="13.2281483"><ele>127.5</ele><time>2026-04-15T12:27:06.391Z</time></trkpt><trkpt lat="46.0974617" lon="13.2281317"><ele>127.0</ele><time>2026-04-15T12:27:07.391Z</time></trkpt><trkpt lat="46.097585" lon="13.2281167"><ele>126.5</ele><time>2026-04-15T12:27:08.389Z</time></trkpt><trkpt lat="46.0977033" lon="13.2281017"><ele>126.0</ele><time>2026-04-15T12:27:09.389Z</time></trkpt><trkpt lat="46.097815" lon="13.2280867"><ele>126.0</ele><time>2026-04-15T12:27:10.39Z</time></trkpt><trkpt lat="46.0979183" lon="13.2280767"><ele>126.0</ele><time>2026-04-15T12:27:11.391Z</time></trkpt><trkpt lat="46.0980183" lon="13.2280633"><ele>126.0</ele><time>2026-04-15T12:27:12.391Z</time></trkpt><trkpt lat="46.0981067" lon="13.2280517"><ele>126.0</ele><time>2026-04-15T12:27:13.39Z</time></trkpt><trkpt lat="46.0981817" lon="13.2280533"><ele>126.0</ele><time>2026-04-15T12:27:14.389Z</time></trkpt><trkpt lat="46.0982683" lon="13.2280683"><ele>126.4</ele><time>2026-04-15T12:27:16.391Z</time></trkpt><trkpt lat="46.0983467" lon="13.22817"><ele>126.8</ele><time>2026-04-15T12:27:19.391Z</time></trkpt><trkpt lat="46.098365" lon="13.2283583"><ele>127.20000000000002</ele><time>2026-04-15T12:27:21.391Z</time></trkpt><trkpt lat="46.0983683" lon="13.2284733"><ele>127.60000000000001</ele><time>2026-04-15T12:27:22.39Z</time></trkpt><trkpt lat="46.0983633" lon="13.2286033"><ele>128.0</ele><time>2026-04-15T12:27:23.39Z</time></trkpt><trkpt lat="46.09836" lon="13.2287317"><ele>127.99999999999999</ele><time>2026-04-15T12:27:24.39Z</time></trkpt><trkpt lat="46.0983517" lon="13.2288567"><ele>128.0</ele><time>2026-04-15T12:27:25.39Z</time></trkpt><trkpt lat="46.09835" lon="13.2289683"><ele>128.0</ele><time>2026-04-15T12:27:26.391Z</time></trkpt><trkpt lat="46.098345" lon="13.2290817"><ele>128.0</ele><time>2026-04-15T12:27:27.39Z</time></trkpt><trkpt lat="46.098335" lon="13.2292"><ele>127.99999999999999</ele><time>2026-04-15T12:27:28.39Z</time></trkpt><trkpt lat="46.0983233" lon="13.2293233"><ele>128.0</ele><time>2026-04-15T12:27:29.391Z</time></trkpt><trkpt lat="46.0983083" lon="13.2294483"><ele>127.99999999999999</ele><time>2026-04-15T12:27:30.39Z</time></trkpt><trkpt lat="46.098295" lon="13.22957"><ele>128.0</ele><time>2026-04-15T12:27:31.39Z</time></trkpt><trkpt lat="46.098275" lon="13.2296917"><ele>128.0</ele><time>2026-04-15T12:27:32.391Z</time></trkpt><trkpt lat="46.098255" lon="13.229805"><ele>128.0</ele><time>2026-04-15T12:27:33.389Z</time></trkpt><trkpt lat="46.0982383" lon="13.229915"><ele>127.99999999999999</ele><time>2026-04-15T12:27:34.39Z</time></trkpt><trkpt lat="46.0982267" lon="13.2300133"><ele>128.0</ele><time>2026-04-15T12:27:35.39Z</time></trkpt><trkpt lat="46.0982067" lon="13.2301667"><ele>128.14285714285714</ele><time>2026-04-15T12:27:37.391Z</time></trkpt><trkpt lat="46.0981983" lon="13.2302733"><ele>128.28571428571428</ele><time>2026-04-15T12:27:39.392Z</time></trkpt><trkpt lat="46.098195" lon="13.230365"><ele>128.42857142857142</ele><time>2026-04-15T12:27:41.39Z</time></trkpt><trkpt lat="46.0981533" lon="13.2304683"><ele>128.57142857142856</ele><time>2026-04-15T12:27:46.391Z</time></trkpt><trkpt lat="46.0980833" lon="13.2305467"><ele>128.71428571428572</ele><time>2026-04-15T12:27:48.391Z</time></trkpt><trkpt lat="46.0980183" lon="13.2305683"><ele>128.85714285714283</ele><time>2026-04-15T12:27:49.39Z</time></trkpt><trkpt lat="46.0979517" lon="13.2305883"><ele>129.0</ele><time>2026-04-15T12:27:50.391Z</time></trkpt><trkpt lat="46.097875" lon="13.2306"><ele>129.0</ele><time>2026-04-15T12:27:51.391Z</time></trkpt><trkpt lat="46.0977967" lon="13.2306117"><ele>129.0</ele><time>2026-04-15T12:27:52.39Z</time></trkpt><trkpt lat="46.0977183" lon="13.23063"><ele>129.0</ele><time>2026-04-15T12:27:53.39Z</time></trkpt><trkpt lat="46.0976233" lon="13.23064"><ele>129.0</ele><time>2026-04-15T12:27:54.39Z</time></trkpt><trkpt lat="46.0975367" lon="13.2306467"><ele>129.0</ele><time>2026-04-15T12:27:55.391Z</time></trkpt><trkpt lat="46.0974467" lon="13.23066"><ele>129.0</ele><time>2026-04-15T12:27:56.39Z</time></trkpt><trkpt lat="46.0973633" lon="13.2306717"><ele>128.6</ele><time>2026-04-15T12:27:57.389Z</time></trkpt><trkpt lat="46.0972867" lon="13.2306817"><ele>128.2</ele><time>2026-04-15T12:27:58.391Z</time></trkpt><trkpt lat="46.0972217" lon="13.2306867"><ele>127.79999999999998</ele><time>2026-04-15T12:27:59.392Z</time></trkpt><trkpt lat="46.0971233" lon="13.2306917"><ele>127.39999999999999</ele><time>2026-04-15T12:28:01.39Z</time></trkpt><trkpt lat="46.0970767" lon="13.2306267"><ele>127.0</ele><time>2026-04-15T12:28:04.39Z</time></trkpt><trkpt lat="46.09714" lon="13.2304083"><ele>127.0</ele><time>2026-04-15T12:28:13.39Z</time></trkpt><trkpt lat="46.0971083" lon="13.2301817"><ele>126.99999999999999</ele><time>2026-04-15T12:28:26.389Z</time></trkpt><trkpt lat="46.0970817" lon="13.2300717"><ele>126.99999999999999</ele><time>2026-04-15T12:28:28.391Z</time></trkpt><trkpt lat="46.0970517" lon="13.2299583"><ele>127.0</ele><time>2026-04-15T12:28:30.39Z</time></trkpt><trkpt lat="46.0970283" lon="13.2298483"><ele>127.0</ele><time>2026-04-15T12:28:32.391Z</time></trkpt><trkpt lat="46.0970033" lon="13.2297567"><ele>127.0</ele><time>2026-04-15T12:28:34.391Z</time></trkpt><trkpt lat="46.096955" lon="13.22966"><ele>127.0</ele><time>2026-04-15T12:28:37.39Z</time></trkpt><trkpt lat="46.0968933" lon="13.2296867"><ele>127.0</ele><time>2026-04-15T12:28:40.392Z</time></trkpt></trkseg></trk></gpx>